Time;durP1;ratioP1;P1;durP2;ratioP2;P2;SDS_P1;SDS_P2;PMS_P1;PMS_P2;Temp;Humidity;BMP_temperature;BMP_pressure;BME280_temperature;BME280_humidity;BME280_pressure;Samples;Min_cycle;Max_cycle;Signal;HPM_P1;HPM_P2
2022/12/12 00:03:38;;;;;;;19.33;7.57;;;;;;;;;;10424569;28;20022;-76
2022/12/12 00:08:39;;;;;;;15.15;6.47;;;;;;;;;;10424428;28;20017;-76
2022/12/12 00:13:39;;;;;;;12.82;5.78;;;;;;;;;;10426014;28;20021;-75
2022/12/12 00:18:40;;;;;;;14.75;6.55;;;;;;;;;;10442008;28;20423;-76
2022/12/12 00:23:40;;;;;;;12.20;7.22;;;;;;;;;;10441967;28;20407;-76
2022/12/12 00:28:40;;;;;;;17.97;8.60;;;;;;;;;;10443288;28;20434;-73
2022/12/12 00:33:42;;;;;;;15.88;8.30;;;;;;;;;;10442945;28;20281;-75
2022/12/12 00:38:42;;;;;;;17.88;9.32;;;;;;;;;;10442088;28;20097;-73
2022/12/12 00:43:43;;;;;;;17.77;9.40;;;;;;;;;;10443814;28;20040;-74
2022/12/12 00:48:43;;;;;;;17.25;8.68;;;;;;;;;;10437355;28;20074;-72
2022/12/12 00:53:44;;;;;;;16.20;9.95;;;;;;;;;;10432366;28;20135;-73
2022/12/12 00:58:44;;;;;;;20.77;10.47;;;;;;;;;;10441682;28;20021;-74
2022/12/12 01:03:45;;;;;;;14.70;8.95;;;;;;;;;;10426936;28;20025;-74
2022/12/12 01:08:45;;;;;;;15.50;9.70;;;;;;;;;;10446991;28;20021;-74
2022/12/12 01:13:47;;;;;;;17.20;9.80;;;;;;;;;;10450752;28;20024;-77
2022/12/12 01:18:48;;;;;;;19.30;11.10;;;;;;;;;;10450129;28;20021;-71
2022/12/12 01:23:49;;;;;;;20.45;10.25;;;;;;;;;;10446027;28;20021;-76
2022/12/12 01:28:50;;;;;;;21.73;10.25;;;;;;;;;;10432098;28;20020;-76
2022/12/12 01:33:50;;;;;;;18.17;10.60;;;;;;;;;;10432082;28;20032;-73
2022/12/12 01:38:52;;;;;;;24.88;12.70;;;;;;;;;;10449521;28;20025;-75
2022/12/12 01:43:53;;;;;;;26.63;13.20;;;;;;;;;;10449454;28;20505;-72
2022/12/12 01:48:57;;;;;;;28.77;13.23;;;;;;;;;;10414813;28;20025;-70
2022/12/12 01:54:07;;;;;;;29.88;14.80;;;;;;;;;;10431225;28;20592;-76
2022/12/12 01:59:09;;;;;;;33.38;16.23;;;;;;;;;;10430970;28;20024;-73
2022/12/12 02:04:10;;;;;;;27.27;15.02;;;;;;;;;;10430727;28;20025;-79
2022/12/12 02:09:12;;;;;;;26.35;14.02;;;;;;;;;;10430131;28;20017;-73
2022/12/12 02:14:21;;;;;;;29.48;14.73;;;;;;;;;;10437271;28;20095;-71
2022/12/12 02:19:49;;;;;;;27.58;14.10;;;;;;;;;;10446860;28;20257;-78
2022/12/12 02:24:55;;;;;;;27.67;13.23;;;;;;;;;;10446421;28;20013;-75
2022/12/12 02:30:11;;;;;;;28.98;13.85;;;;;;;;;;10429196;28;20436;-71
2022/12/12 02:35:20;;;;;;;25.63;13.63;;;;;;;;;;10429557;28;20067;-77
2022/12/12 02:40:20;;;;;;;30.45;13.18;;;;;;;;;;10429494;28;20021;-72
2022/12/12 02:45:28;;;;;;;28.52;14.52;;;;;;;;;;10446736;28;20479;-76
2022/12/12 02:50:29;;;;;;;26.67;13.80;;;;;;;;;;10454444;28;20618;-74
2022/12/12 02:55:29;;;;;;;23.90;14.07;;;;;;;;;;10435680;28;20140;-73
2022/12/12 03:00:33;;;;;;;24.50;12.97;;;;;;;;;;10455264;28;20115;-75
2022/12/12 03:11:10;;;;;;;25.83;14.27;;;;;;;;;;10431437;28;20024;-70
2022/12/12 03:16:29;;;;;;;27.42;14.15;;;;;;;;;;10386326;28;20087;-73
2022/12/12 03:21:48;;;;;;;25.50;14.57;;;;;;;;;;10411574;28;20033;-75
2022/12/12 03:26:53;;;;;;;30.85;15.25;;;;;;;;;;10420600;28;20504;-75
2022/12/12 03:31:57;;;;;;;26.23;13.55;;;;;;;;;;10425952;28;20070;-71
2022/12/12 03:37:04;;;;;;;28.50;14.45;;;;;;;;;;10445003;28;20607;-75
2022/12/12 03:42:07;;;;;;;31.88;15.10;;;;;;;;;;10409042;28;20029;-71
2022/12/12 03:47:19;;;;;;;30.52;15.20;;;;;;;;;;10419163;28;20033;-79
2022/12/12 03:52:25;;;;;;;34.10;16.08;;;;;;;;;;10426697;28;20067;-77
2022/12/12 03:57:29;;;;;;;34.78;15.05;;;;;;;;;;10443882;28;20461;-74
2022/12/12 04:02:38;;;;;;;33.80;16.15;;;;;;;;;;10444073;28;20270;-76
2022/12/12 04:07:41;;;;;;;30.58;15.18;;;;;;;;;;10422708;28;20053;-73
2022/12/12 04:12:57;;;;;;;33.20;13.98;;;;;;;;;;10426201;28;20117;-73
2022/12/12 04:17:57;;;;;;;36.72;16.35;;;;;;;;;;10442034;28;20082;-75
2022/12/12 04:23:14;;;;;;;35.22;16.42;;;;;;;;;;10411934;28;20457;-76
2022/12/12 04:28:15;;;;;;;31.00;15.05;;;;;;;;;;10433855;28;20021;-72
2022/12/12 04:33:17;;;;;;;34.85;16.13;;;;;;;;;;10420602;28;20458;-72
2022/12/12 04:38:22;;;;;;;34.70;17.08;;;;;;;;;;10424970;28;20029;-77
2022/12/12 04:43:26;;;;;;;34.90;15.90;;;;;;;;;;10416655;28;20112;-71
2022/12/12 04:48:29;;;;;;;30.83;13.77;;;;;;;;;;10437880;28;20098;-77
2022/12/12 04:53:32;;;;;;;36.80;16.65;;;;;;;;;;10436915;28;20154;-72
2022/12/12 04:58:33;;;;;;;30.67;15.13;;;;;;;;;;10451326;28;20032;-77
2022/12/12 05:03:47;;;;;;;34.10;16.67;;;;;;;;;;10414214;28;20032;-76
2022/12/12 05:08:48;;;;;;;34.63;16.88;;;;;;;;;;10430672;28;20500;-74
2022/12/12 05:13:49;;;;;;;32.47;14.68;;;;;;;;;;10430105;28;20021;-76
2022/12/12 05:18:49;;;;;;;34.78;15.88;;;;;;;;;;10419556;28;20037;-77
2022/12/12 05:23:49;;;;;;;33.00;14.63;;;;;;;;;;10446741;28;20063;-75
2022/12/12 05:28:50;;;;;;;37.43;17.80;;;;;;;;;;10424123;28;20041;-72
2022/12/12 05:33:51;;;;;;;35.95;16.75;;;;;;;;;;10418933;28;20032;-74
2022/12/12 05:38:51;;;;;;;43.00;19.67;;;;;;;;;;10419298;28;20043;-73
2022/12/12 05:43:51;;;;;;;35.00;16.60;;;;;;;;;;10429457;28;20032;-74
2022/12/12 05:48:52;;;;;;;36.53;17.75;;;;;;;;;;10427797;28;20025;-75
2022/12/12 05:53:53;;;;;;;37.40;17.67;;;;;;;;;;10445861;28;20511;-77
2022/12/12 05:58:54;;;;;;;29.95;15.68;;;;;;;;;;10447950;28;20256;-76
2022/12/12 06:03:54;;;;;;;58.75;27.02;;;;;;;;;;10445428;28;20024;-76
2022/12/12 06:08:54;;;;;;;51.38;22.88;;;;;;;;;;10426341;28;20024;-75
2022/12/12 06:13:56;;;;;;;51.97;22.25;;;;;;;;;;10443961;28;20032;-74
2022/12/12 06:18:56;;;;;;;53.95;22.70;;;;;;;;;;10446666;28;20028;-76
2022/12/12 06:23:56;;;;;;;48.95;22.55;;;;;;;;;;10446156;28;20032;-74
2022/12/12 06:28:56;;;;;;;49.85;19.48;;;;;;;;;;10428926;28;20249;-71
2022/12/12 06:33:57;;;;;;;41.30;17.92;;;;;;;;;;10418789;28;20098;-73
2022/12/12 06:38:58;;;;;;;43.20;18.88;;;;;;;;;;10428309;28;20028;-71
2022/12/12 06:43:59;;;;;;;49.42;21.65;;;;;;;;;;10444847;28;20044;-70
2022/12/12 06:49:00;;;;;;;50.33;21.70;;;;;;;;;;10425983;28;20428;-79
2022/12/12 06:54:01;;;;;;;41.85;20.00;;;;;;;;;;10453560;28;20335;-78
2022/12/12 06:59:01;;;;;;;45.30;20.67;;;;;;;;;;10437804;28;20490;-79
2022/12/12 07:04:02;;;;;;;49.00;21.43;;;;;;;;;;10436190;28;20275;-73
2022/12/12 07:09:02;;;;;;;49.35;21.17;;;;;;;;;;10403560;28;20025;-73
2022/12/12 07:14:04;;;;;;;45.55;20.65;;;;;;;;;;10432196;28;20021;-73
2022/12/12 07:19:04;;;;;;;48.10;20.27;;;;;;;;;;10426590;28;20068;-76
2022/12/12 07:24:05;;;;;;;33.70;16.87;;;;;;;;;;10402091;28;20124;-76
2022/12/12 07:29:05;;;;;;;45.03;19.97;;;;;;;;;;10442930;28;20458;-81
2022/12/12 07:34:05;;;;;;;43.55;20.08;;;;;;;;;;10443879;28;20593;-71
2022/12/12 07:39:05;;;;;;;45.80;21.48;;;;;;;;;;10399674;28;20136;-76
2022/12/12 07:44:06;;;;;;;54.10;23.50;;;;;;;;;;10398539;28;20058;-73
2022/12/12 07:49:06;;;;;;;56.30;26.77;;;;;;;;;;10406911;28;20021;-71
2022/12/12 07:54:06;;;;;;;57.13;28.40;;;;;;;;;;10441321;28;20061;-79
2022/12/12 07:59:07;;;;;;;59.10;27.38;;;;;;;;;;10423491;28;20039;-78
2022/12/12 08:04:07;;;;;;;59.67;29.30;;;;;;;;;;10409898;28;20240;-81
2022/12/12 08:09:07;;;;;;;58.42;28.40;;;;;;;;;;10415993;28;20064;-76
2022/12/12 08:14:08;;;;;;;59.42;26.75;;;;;;;;;;10430051;28;20120;-78
2022/12/12 08:19:08;;;;;;;49.47;25.63;;;;;;;;;;10425560;28;20191;-74
2022/12/12 08:24:10;;;;;;;58.50;28.25;;;;;;;;;;10411997;28;20487;-73
2022/12/12 08:29:11;;;;;;;57.53;28.73;;;;;;;;;;10424801;28;20487;-76
2022/12/12 08:34:12;;;;;;;55.72;27.58;;;;;;;;;;10425274;28;20029;-72
2022/12/12 08:39:14;;;;;;;56.65;25.90;;;;;;;;;;10405885;28;20112;-74
2022/12/12 08:44:17;;;;;;;58.65;28.15;;;;;;;;;;10407142;28;20495;-77
2022/12/12 08:49:19;;;;;;;59.03;26.92;;;;;;;;;;10410518;28;20032;-74
2022/12/12 08:54:19;;;;;;;64.90;26.75;;;;;;;;;;10400391;28;20067;-76
2022/12/12 08:59:20;;;;;;;57.03;28.08;;;;;;;;;;10402789;28;20052;-75
2022/12/12 09:04:20;;;;;;;58.70;30.30;;;;;;;;;;10406871;28;20025;-74
2022/12/12 09:09:20;;;;;;;54.10;26.80;;;;;;;;;;10426560;28;20029;-74
2022/12/12 09:14:20;;;;;;;55.88;26.17;;;;;;;;;;10423747;28;20025;-72
2022/12/12 09:19:21;;;;;;;54.55;26.67;;;;;;;;;;10412504;28;20380;-75
2022/12/12 09:24:22;;;;;;;56.53;26.45;;;;;;;;;;10435257;28;20483;-72
2022/12/12 09:29:23;;;;;;;55.20;27.90;;;;;;;;;;10441918;28;20017;-75
2022/12/12 09:34:23;;;;;;;60.28;28.02;;;;;;;;;;10420333;28;20025;-76
2022/12/12 09:39:23;;;;;;;55.70;25.57;;;;;;;;;;10427733;28;20119;-73
2022/12/12 09:44:24;;;;;;;64.97;29.55;;;;;;;;;;10418489;28;20558;-72
2022/12/12 09:49:47;;;;;;;53.35;24.42;;;;;;;;;;10431757;28;20027;-75
2022/12/12 09:54:48;;;;;;;61.20;26.40;;;;;;;;;;10408219;28;20064;-73
2022/12/12 10:00:02;;;;;;;53.93;26.17;;;;;;;;;;10438878;28;20389;-77
2022/12/12 10:05:15;;;;;;;55.72;24.52;;;;;;;;;;10418857;28;20151;-73
2022/12/12 10:10:15;;;;;;;47.08;23.25;;;;;;;;;;10422627;28;20027;-72
2022/12/12 10:15:30;;;;;;;47.03;22.65;;;;;;;;;;10454448;28;20031;-78
2022/12/12 10:20:32;;;;;;;47.10;22.55;;;;;;;;;;10452515;28;20028;-71
2022/12/12 10:25:42;;;;;;;43.78;20.05;;;;;;;;;;10441668;28;20403;-71
2022/12/12 10:30:45;;;;;;;47.97;21.40;;;;;;;;;;10445823;28;20648;-75
2022/12/12 10:36:03;;;;;;;70.22;30.20;;;;;;;;;;10469227;28;20036;-77
2022/12/12 10:41:09;;;;;;;60.22;28.50;;;;;;;;;;10450073;28;20021;-75
2022/12/12 10:46:21;;;;;;;58.60;30.20;;;;;;;;;;10439014;28;20059;-78
2022/12/12 10:51:24;;;;;;;59.67;28.42;;;;;;;;;;10449009;28;20070;-77
2022/12/12 10:56:27;;;;;;;68.78;32.55;;;;;;;;;;10389090;28;20067;-71
2022/12/12 11:01:33;;;;;;;65.55;30.95;;;;;;;;;;10382199;28;20041;-79
2022/12/12 11:06:44;;;;;;;55.92;27.10;;;;;;;;;;10395711;28;20105;-77
2022/12/12 11:11:58;;;;;;;56.28;26.00;;;;;;;;;;10406371;28;20021;-74
2022/12/12 11:16:59;;;;;;;54.53;28.00;;;;;;;;;;10387189;28;20022;-72
2022/12/12 11:22:03;;;;;;;63.50;29.70;;;;;;;;;;10392855;28;20022;-77
2022/12/12 11:27:05;;;;;;;73.70;28.67;;;;;;;;;;10416773;28;20021;-78
2022/12/12 11:32:16;;;;;;;67.35;32.75;;;;;;;;;;10382862;28;20246;-77
2022/12/12 11:37:18;;;;;;;74.68;33.25;;;;;;;;;;10403096;28;20033;-74
2022/12/12 11:42:37;;;;;;;76.88;33.92;;;;;;;;;;10401431;28;20467;-76
2022/12/12 11:47:47;;;;;;;72.18;34.65;;;;;;;;;;10410389;28;20021;-72
2022/12/12 11:52:48;;;;;;;67.22;31.92;;;;;;;;;;10410138;28;20091;-72
2022/12/12 11:58:07;;;;;;;66.40;34.90;;;;;;;;;;10426198;28;20094;-75
2022/12/12 12:03:17;;;;;;;79.07;37.85;;;;;;;;;;10414307;28;20167;-76
2022/12/12 12:08:34;;;;;;;85.85;37.35;;;;;;;;;;10428336;28;20402;-77
2022/12/12 12:13:34;;;;;;;63.25;32.35;;;;;;;;;;10421731;28;20118;-72
2022/12/12 12:18:34;;;;;;;62.47;30.67;;;;;;;;;;10424849;28;20109;-75
2022/12/12 12:23:41;;;;;;;72.55;32.28;;;;;;;;;;10424693;28;20059;-71
2022/12/12 12:29:00;;;;;;;58.45;29.88;;;;;;;;;;10434804;28;20021;-76
2022/12/12 12:34:08;;;;;;;62.60;31.10;;;;;;;;;;10441560;28;20417;-76
2022/12/12 12:39:20;;;;;;;59.95;30.23;;;;;;;;;;10442571;28;20033;-76
2022/12/12 12:44:39;;;;;;;60.75;30.42;;;;;;;;;;10424011;28;20025;-77
2022/12/12 12:49:43;;;;;;;66.63;33.25;;;;;;;;;;10424057;28;20025;-77
2022/12/12 12:54:47;;;;;;;65.97;29.88;;;;;;;;;;10423803;28;20149;-70
2022/12/12 12:59:54;;;;;;;62.22;29.23;;;;;;;;;;10409832;28;20032;-76
2022/12/12 13:05:06;;;;;;;64.50;29.23;;;;;;;;;;10431901;28;20086;-71
2022/12/12 13:10:19;;;;;;;64.88;30.40;;;;;;;;;;10431753;28;20036;-78
2022/12/12 13:15:30;;;;;;;61.00;28.27;;;;;;;;;;10422229;28;20029;-78
2022/12/12 13:20:42;;;;;;;67.18;31.20;;;;;;;;;;10431128;28;20558;-76
2022/12/12 13:25:58;;;;;;;64.80;33.15;;;;;;;;;;10442587;28;20523;-73
2022/12/12 13:31:17;;;;;;;75.03;31.52;;;;;;;;;;10430607;28;20027;-78
2022/12/12 13:36:17;;;;;;;73.15;35.35;;;;;;;;;;10429348;28;20487;-75
2022/12/12 13:41:18;;;;;;;67.68;33.05;;;;;;;;;;10440477;28;20039;-76
2022/12/12 13:46:32;;;;;;;67.25;32.50;;;;;;;;;;10413339;28;20029;-77
2022/12/12 13:51:33;;;;;;;59.10;28.13;;;;;;;;;;10413916;28;20495;-77
2022/12/12 13:56:39;;;;;;;69.65;28.58;;;;;;;;;;10405605;28;20482;-72
2022/12/12 14:01:39;;;;;;;68.57;30.25;;;;;;;;;;10425921;28;20033;-73
2022/12/12 14:06:40;;;;;;;59.37;27.40;;;;;;;;;;10434519;28;20033;-72
2022/12/12 14:11:40;;;;;;;66.70;29.77;;;;;;;;;;10427689;28;20040;-73
2022/12/12 14:16:40;;;;;;;71.18;29.08;;;;;;;;;;10417592;28;20025;-72
2022/12/12 14:21:49;;;;;;;65.85;30.23;;;;;;;;;;10426411;28;20090;-74
2022/12/12 14:26:49;;;;;;;71.47;29.77;;;;;;;;;;10424685;28;20021;-74
2022/12/12 14:32:09;;;;;;;65.63;30.60;;;;;;;;;;10423820;28;20024;-74
2022/12/12 14:37:09;;;;;;;82.90;39.25;;;;;;;;;;10409231;28;20143;-77
2022/12/12 14:42:17;;;;;;;83.60;41.75;;;;;;;;;;10414822;28;20547;-72
2022/12/12 14:47:17;;;;;;;93.38;46.20;;;;;;;;;;10415940;28;20029;-73
2022/12/12 14:52:20;;;;;;;87.85;43.70;;;;;;;;;;10428864;28;20038;-72
2022/12/12 14:57:22;;;;;;;88.38;42.47;;;;;;;;;;10415065;28;20053;-74
2022/12/12 15:02:24;;;;;;;98.78;44.55;;;;;;;;;;10412123;28;20352;-74
2022/12/12 15:07:26;;;;;;;84.95;39.70;;;;;;;;;;10415559;28;20083;-77
2022/12/12 15:12:41;;;;;;;82.80;39.78;;;;;;;;;;10421331;28;20021;-77
2022/12/12 15:17:47;;;;;;;83.68;41.55;;;;;;;;;;10427694;28;20040;-71
2022/12/12 15:22:58;;;;;;;66.55;32.45;;;;;;;;;;10430053;28;20521;-80
2022/12/12 15:27:59;;;;;;;56.67;27.27;;;;;;;;;;10414444;28;20024;-72
2022/12/12 15:33:00;;;;;;;62.53;29.50;;;;;;;;;;10427408;28;20021;-76
2022/12/12 15:38:04;;;;;;;56.90;28.33;;;;;;;;;;10411394;28;20036;-72
2022/12/12 15:43:13;;;;;;;57.78;28.08;;;;;;;;;;10406090;28;20525;-72
2022/12/12 15:48:17;;;;;;;62.53;28.13;;;;;;;;;;10426446;28;20476;-72
2022/12/12 15:53:47;;;;;;;55.95;26.35;;;;;;;;;;10411654;28;20080;-79
2022/12/12 15:58:49;;;;;;;48.38;22.65;;;;;;;;;;10411104;28;20045;-77
2022/12/12 16:03:55;;;;;;;48.47;22.33;;;;;;;;;;10417321;28;20407;-79
2022/12/12 16:09:15;;;;;;;46.28;21.95;;;;;;;;;;10411671;28;20123;-77
2022/12/12 16:14:37;;;;;;;43.10;18.13;;;;;;;;;;10427722;28;20035;-77
2022/12/12 16:19:40;;;;;;;30.35;13.05;;;;;;;;;;10411690;28;20033;-76
2022/12/12 16:24:49;;;;;;;34.67;10.48;;;;;;;;;;10405597;28;20032;-76
2022/12/12 16:29:49;;;;;;;18.98;9.43;;;;;;;;;;10414648;28;20029;-71
2022/12/12 16:34:50;;;;;;;24.63;11.30;;;;;;;;;;10407437;28;20062;-72
2022/12/12 16:39:50;;;;;;;15.88;9.40;;;;;;;;;;10423621;28;20079;-79
2022/12/12 16:44:51;;;;;;;13.63;7.70;;;;;;;;;;10414302;28;20056;-74
2022/12/12 16:49:51;;;;;;;17.52;9.25;;;;;;;;;;10423520;28;20151;-71
2022/12/12 16:54:51;;;;;;;13.52;7.65;;;;;;;;;;10400599;28;20068;-72
2022/12/12 16:59:51;;;;;;;10.90;6.75;;;;;;;;;;10403883;28;20025;-73
2022/12/12 17:04:52;;;;;;;12.23;7.45;;;;;;;;;;10408871;28;20037;-73
2022/12/12 17:09:52;;;;;;;13.07;7.07;;;;;;;;;;10424220;28;20039;-75
2022/12/12 17:14:52;;;;;;;13.27;7.70;;;;;;;;;;10423514;28;20526;-72
2022/12/12 17:19:52;;;;;;;12.57;7.35;;;;;;;;;;10399819;28;20108;-74
2022/12/12 17:24:53;;;;;;;11.80;6.38;;;;;;;;;;10412454;28;20029;-71
2022/12/12 17:29:53;;;;;;;13.27;6.15;;;;;;;;;;10407423;28;20029;-71
2022/12/12 17:34:53;;;;;;;12.30;6.28;;;;;;;;;;10410538;28;20061;-72
2022/12/12 17:39:54;;;;;;;6.10;4.20;;;;;;;;;;10406052;28;20029;-71
2022/12/12 17:44:54;;;;;;;5.97;3.50;;;;;;;;;;10432687;28;20037;-75
2022/12/12 17:49:54;;;;;;;8.45;3.47;;;;;;;;;;10430315;28;20017;-71
2022/12/12 17:54:54;;;;;;;6.82;4.00;;;;;;;;;;10431542;28;20059;-76
2022/12/12 17:59:55;;;;;;;9.40;4.93;;;;;;;;;;10463727;28;20489;-77
2022/12/12 18:04:56;;;;;;;6.38;3.65;;;;;;;;;;10467611;28;20454;-74
2022/12/12 18:09:56;;;;;;;5.65;3.50;;;;;;;;;;10443726;28;20094;-78
2022/12/12 18:14:56;;;;;;;6.80;4.05;;;;;;;;;;10423709;28;20025;-73
2022/12/12 18:19:56;;;;;;;7.85;3.83;;;;;;;;;;10448823;28;20437;-71
2022/12/12 18:24:57;;;;;;;7.07;3.92;;;;;;;;;;10418581;28;20435;-71
2022/12/12 18:29:57;;;;;;;7.70;4.70;;;;;;;;;;10405044;28;20403;-71
2022/12/12 18:34:57;;;;;;;8.65;4.32;;;;;;;;;;10436193;28;20103;-76
2022/12/12 18:39:57;;;;;;;8.77;4.50;;;;;;;;;;10415126;28;20091;-72
2022/12/12 18:44:58;;;;;;;6.47;3.88;;;;;;;;;;10415363;28;20465;-76
2022/12/12 18:49:58;;;;;;;8.52;4.20;;;;;;;;;;10422482;28;20537;-72
2022/12/12 18:54:58;;;;;;;8.40;4.18;;;;;;;;;;10409071;28;20594;-75
2022/12/12 18:59:59;;;;;;;10.23;4.53;;;;;;;;;;10411125;28;20025;-72
2022/12/12 19:04:59;;;;;;;7.35;4.30;;;;;;;;;;10441407;28;20114;-71
2022/12/12 19:10:01;;;;;;;7.53;4.50;;;;;;;;;;10436376;28;20602;-75
2022/12/12 19:15:02;;;;;;;7.40;4.20;;;;;;;;;;10408607;28;20471;-74
2022/12/12 19:20:03;;;;;;;5.18;3.95;;;;;;;;;;10432067;28;20137;-78
2022/12/12 19:25:04;;;;;;;9.82;4.65;;;;;;;;;;10429806;28;20063;-77
2022/12/12 19:30:04;;;;;;;6.85;4.47;;;;;;;;;;10413836;28;20017;-73
2022/12/12 19:35:05;;;;;;;11.27;4.97;;;;;;;;;;10432313;28;20373;-77
2022/12/12 19:40:05;;;;;;;7.50;4.93;;;;;;;;;;10433471;28;20502;-78
2022/12/12 19:45:07;;;;;;;10.27;5.78;;;;;;;;;;10408404;28;20163;-77
2022/12/12 19:50:07;;;;;;;8.77;5.03;;;;;;;;;;10416658;28;20014;-76
2022/12/12 19:55:07;;;;;;;10.65;5.85;;;;;;;;;;10420081;28;20061;-77
2022/12/12 20:00:08;;;;;;;12.35;6.75;;;;;;;;;;10418166;28;20120;-72
2022/12/12 20:05:10;;;;;;;11.13;5.90;;;;;;;;;;10429041;28;20036;-71
2022/12/12 20:10:10;;;;;;;8.52;5.55;;;;;;;;;;10399175;28;20104;-72
2022/12/12 20:15:11;;;;;;;11.07;6.60;;;;;;;;;;10418923;28;20104;-77
2022/12/12 20:20:11;;;;;;;13.70;7.43;;;;;;;;;;10409484;28;20483;-74
2022/12/12 20:25:11;;;;;;;21.52;7.65;;;;;;;;;;10408610;28;20014;-77
2022/12/12 20:30:12;;;;;;;12.68;7.47;;;;;;;;;;10403072;28;20496;-72
2022/12/12 20:35:12;;;;;;;12.83;7.10;;;;;;;;;;10417534;28;20362;-73
2022/12/12 20:40:12;;;;;;;10.52;6.93;;;;;;;;;;10404385;28;20025;-77
2022/12/12 20:45:13;;;;;;;15.82;7.68;;;;;;;;;;10399116;28;20022;-74
2022/12/12 20:50:13;;;;;;;14.80;8.40;;;;;;;;;;10416160;28;20399;-77
2022/12/12 20:55:13;;;;;;;12.43;7.77;;;;;;;;;;10388311;28;20471;-77
2022/12/12 21:00:14;;;;;;;26.13;8.67;;;;;;;;;;10423343;28;20017;-73
2022/12/12 21:05:15;;;;;;;14.02;7.68;;;;;;;;;;10422630;28;20017;-75
2022/12/12 21:10:15;;;;;;;17.70;9.20;;;;;;;;;;10440104;28;20087;-72
2022/12/12 21:15:15;;;;;;;16.60;9.23;;;;;;;;;;10423099;28;20021;-73
2022/12/12 21:20:16;;;;;;;16.65;8.95;;;;;;;;;;10413666;28;20017;-77
2022/12/12 21:25:17;;;;;;;19.07;9.40;;;;;;;;;;10408721;28;20043;-76
2022/12/12 21:30:17;;;;;;;21.33;9.95;;;;;;;;;;10449015;28;20104;-76
2022/12/12 21:35:17;;;;;;;13.03;8.07;;;;;;;;;;10430142;28;20035;-77
2022/12/12 21:40:21;;;;;;;19.17;10.20;;;;;;;;;;10429658;28;20470;-72
2022/12/12 21:45:21;;;;;;;20.83;8.95;;;;;;;;;;10446915;28;20505;-74
2022/12/12 21:50:21;;;;;;;19.60;8.53;;;;;;;;;;10468764;28;20025;-74
2022/12/12 21:55:22;;;;;;;17.03;8.47;;;;;;;;;;10468633;28;20322;-76
2022/12/12 22:00:24;;;;;;;20.33;9.07;;;;;;;;;;10446069;28;20474;-73
2022/12/12 22:05:26;;;;;;;16.02;9.40;;;;;;;;;;10430531;28;20032;-76
2022/12/12 22:10:26;;;;;;;15.95;7.90;;;;;;;;;;10436332;28;20088;-74
2022/12/12 22:15:26;;;;;;;15.70;7.57;;;;;;;;;;10428010;28;20116;-73
2022/12/12 22:20:27;;;;;;;14.00;7.30;;;;;;;;;;10449277;28;20279;-74
2022/12/12 22:25:27;;;;;;;13.05;6.78;;;;;;;;;;10429467;28;20043;-76
2022/12/12 22:30:28;;;;;;;16.00;7.20;;;;;;;;;;10414923;28;20415;-76
2022/12/12 22:35:28;;;;;;;13.95;6.72;;;;;;;;;;10441653;28;20033;-77
2022/12/12 22:40:28;;;;;;;11.82;6.80;;;;;;;;;;10441691;28;20044;-77
2022/12/12 22:45:28;;;;;;;10.18;6.18;;;;;;;;;;10441752;28;20194;-76
2022/12/12 22:50:29;;;;;;;13.15;6.88;;;;;;;;;;10423294;28;20029;-71
2022/12/12 22:55:29;;;;;;;13.27;6.93;;;;;;;;;;10421687;28;20060;-75
2022/12/12 23:00:30;;;;;;;12.82;6.68;;;;;;;;;;10426401;28;20388;-74
2022/12/12 23:05:30;;;;;;;14.43;6.75;;;;;;;;;;10426281;28;20031;-77
2022/12/12 23:10:30;;;;;;;12.67;5.57;;;;;;;;;;10426397;28;20105;-74
2022/12/12 23:15:30;;;;;;;10.30;6.03;;;;;;;;;;10426681;28;20137;-75
2022/12/12 23:20:31;;;;;;;10.82;5.65;;;;;;;;;;10430773;28;20025;-72
2022/12/12 23:25:31;;;;;;;12.13;6.28;;;;;;;;;;10448660;28;20580;-72
2022/12/12 23:30:31;;;;;;;11.82;5.78;;;;;;;;;;10453742;28;20029;-74
2022/12/12 23:35:32;;;;;;;13.40;6.65;;;;;;;;;;10454840;28;20021;-75
2022/12/12 23:40:32;;;;;;;12.82;6.10;;;;;;;;;;10440880;28;20461;-76
2022/12/12 23:45:33;;;;;;;11.83;5.57;;;;;;;;;;10406022;28;20056;-75
2022/12/12 23:50:34;;;;;;;15.70;6.70;;;;;;;;;;10421252;28;20051;-71
2022/12/12 23:55:34;;;;;;;13.00;6.03;;;;;;;;;;10424622;28;20063;-78
